Time;durP1;ratioP1;P1;durP2;ratioP2;P2;SDS_P1;SDS_P2;PMS_P1;PMS_P2;Temp;Humidity;BMP_temperature;BMP_pressure;BME280_temperature;BME280_humidity;BME280_pressure;Samples;Min_cycle;Max_cycle;Signal;HPM_P1;HPM_P2
2021/06/08 00:01:52;;;;;;;10.30;3.87;;;12.60;1.00;;;;;;5175254;27;20199;-75
2021/06/08 00:04:39;;;;;;;7.30;4.13;;;12.60;1.00;;;;;;5174847;27;20205;-77
2021/06/08 00:07:28;;;;;;;5.63;3.67;;;12.60;1.00;;;;;;5176055;27;20200;-76
2021/06/08 00:10:15;;;;;;;7.77;4.20;;;12.60;1.00;;;;;;5175652;27;20258;-77
2021/06/08 00:13:02;;;;;;;7.47;3.80;;;12.60;1.00;;;;;;5175355;27;20238;-77
2021/06/08 00:15:49;;;;;;;6.73;3.90;;;12.50;1.00;;;;;;5166578;27;20658;-77
2021/06/08 00:18:36;;;;;;;5.53;3.93;;;12.50;1.00;;;;;;5174660;27;20195;-76
2021/06/08 00:21:23;;;;;;;5.67;3.57;;;12.50;1.00;;;;;;5166879;27;20197;-76
2021/06/08 00:24:12;;;;;;;4.93;3.60;;;12.50;1.00;;;;;;5175830;27;20201;-77
2021/06/08 00:26:59;;;;;;;7.03;3.80;;;12.50;1.00;;;;;;5175369;27;20198;-77
2021/06/08 00:29:46;;;;;;;9.77;4.00;;;12.50;1.00;;;;;;5175182;27;20281;-75
2021/06/08 00:32:33;;;;;;;4.80;3.57;;;12.50;1.00;;;;;;5167162;27;20245;-75
2021/06/08 00:35:21;;;;;;;6.53;3.70;;;12.50;1.00;;;;;;5175361;27;20197;-74
2021/06/08 00:38:08;;;;;;;5.80;3.67;;;12.40;1.00;;;;;;5157176;27;20212;-74
2021/06/08 00:40:56;;;;;;;10.00;3.90;;;12.40;1.00;;;;;;5167462;27;20735;-75
2021/06/08 00:43:43;;;;;;;7.13;3.73;;;12.40;1.00;;;;;;5173815;27;20202;-74
2021/06/08 00:46:30;;;;;;;4.97;3.87;;;12.40;1.00;;;;;;5174792;27;20209;-74
2021/06/08 00:49:17;;;;;;;5.03;3.63;;;12.40;1.00;;;;;;5174592;27;20189;-74
2021/06/08 00:52:05;;;;;;;8.20;3.87;;;12.30;1.00;;;;;;5167220;27;20185;-75
2021/06/08 00:54:52;;;;;;;4.87;3.70;;;12.30;1.00;;;;;;5174819;27;20216;-74
2021/06/08 00:57:55;;;;;;;9.00;3.70;;;12.30;1.00;;;;;;5077279;28;20308;-74
2021/06/08 01:00:43;;;;;;;4.93;3.50;;;12.20;1.00;;;;;;5099209;28;20200;-75
2021/06/08 01:03:32;;;;;;;9.20;3.60;;;12.30;1.00;;;;;;5100010;28;20195;-74
2021/06/08 01:06:19;;;;;;;6.83;4.17;;;12.20;1.00;;;;;;5094353;28;20192;-74
2021/06/08 01:09:06;;;;;;;7.57;4.10;;;12.20;1.00;;;;;;5083885;28;20682;-74
2021/06/08 01:11:53;;;;;;;6.97;3.80;;;12.10;1.00;;;;;;5102839;28;20192;-74
2021/06/08 01:14:42;;;;;;;8.60;3.70;;;12.10;1.80;;;;;;5093756;28;20225;-74
2021/06/08 01:17:29;;;;;;;5.10;3.70;;;12.10;4.10;;;;;;5102407;28;20254;-74
2021/06/08 01:20:17;;;;;;;8.50;4.10;;;12.10;2.30;;;;;;5102299;28;20214;-74
2021/06/08 01:23:05;;;;;;;8.53;4.30;;;12.00;1.00;;;;;;5099502;28;20191;-74
2021/06/08 01:25:52;;;;;;;4.73;3.70;;;12.00;2.40;;;;;;5109348;28;20208;-74
2021/06/08 01:28:39;;;;;;;4.97;3.90;;;11.90;2.80;;;;;;5093528;28;20682;-75
2021/06/08 01:31:28;;;;;;;6.07;3.80;;;11.90;2.20;;;;;;5082938;28;20646;-74
2021/06/08 01:34:15;;;;;;;13.33;3.83;;;11.80;6.00;;;;;;5105052;27;20195;-76
2021/06/08 01:37:03;;;;;;;4.83;3.73;;;11.90;3.70;;;;;;5174666;27;20672;-76
2021/06/08 01:39:52;;;;;;;5.03;3.90;;;11.80;4.40;;;;;;5173108;27;20207;-74
2021/06/08 01:42:39;;;;;;;5.70;3.80;;;11.80;9.10;;;;;;5168026;27;20216;-76
2021/06/08 01:45:26;;;;;;;9.60;3.87;;;11.70;11.90;;;;;;5174066;27;20253;-76
2021/06/08 01:48:13;;;;;;;5.70;3.80;;;11.70;12.10;;;;;;5168367;27;20196;-76
2021/06/08 01:51:04;;;;;;;5.23;3.87;;;11.60;11.80;;;;;;5174129;27;20193;-76
2021/06/08 01:53:56;;;;;;;11.97;4.20;;;11.60;13.40;;;;;;5167271;27;20228;-76
2021/06/08 01:56:45;;;;;;;6.37;4.17;;;11.50;15.20;;;;;;5173926;27;20552;-76
2021/06/08 01:59:37;;;;;;;5.60;3.80;;;11.40;20.20;;;;;;5177690;27;20534;-75
2021/06/08 02:02:28;;;;;;;8.70;4.27;;;11.40;20.50;;;;;;5177387;27;20185;-76
2021/06/08 02:05:19;;;;;;;6.87;3.57;;;11.40;23.80;;;;;;5177926;27;20204;-76
2021/06/08 02:08:26;;;;;;;5.03;3.77;;;11.30;25.10;;;;;;5177233;27;20196;-76
2021/06/08 02:11:15;;;;;;;5.43;3.40;;;11.30;24.30;;;;;;5172782;27;20196;-76
2021/06/08 02:14:05;;;;;;;5.97;3.87;;;11.20;27.90;;;;;;5176808;27;20214;-76
2021/06/08 02:16:54;;;;;;;7.90;4.00;;;11.20;29.80;;;;;;5178171;27;20245;-76
2021/06/08 02:19:42;;;;;;;5.80;3.87;;;11.20;30.00;;;;;;5177392;27;20226;-76
2021/06/08 02:22:29;;;;;;;6.83;4.00;;;11.10;31.80;;;;;;5177077;27;20594;-75
2021/06/08 02:25:18;;;;;;;5.13;4.10;;;11.10;38.40;;;;;;5169401;27;20271;-75
2021/06/08 02:28:07;;;;;;;7.17;4.07;;;11.10;41.90;;;;;;5177539;27;20188;-75
2021/06/08 02:30:56;;;;;;;4.13;3.60;;;11.10;41.60;;;;;;5174725;27;20649;-75
2021/06/08 02:33:43;;;;;;;6.30;3.90;;;11.00;47.70;;;;;;5178011;27;20691;-75
2021/06/08 02:36:30;;;;;;;8.07;4.27;;;11.00;50.70;;;;;;5169579;27;20217;-75
2021/06/08 02:39:17;;;;;;;6.30;4.03;;;10.90;53.30;;;;;;5177449;27;20561;-75
2021/06/08 02:42:05;;;;;;;6.10;4.07;;;10.90;58.20;;;;;;5170005;27;20654;-74
2021/06/08 02:44:52;;;;;;;7.57;4.07;;;10.90;61.60;;;;;;5177020;27;20203;-75
2021/06/08 02:47:41;;;;;;;10.20;4.20;;;10.90;60.90;;;;;;5169294;27;20232;-74
2021/06/08 02:50:29;;;;;;;13.80;4.17;;;11.00;63.90;;;;;;5175759;27;20198;-74
2021/06/08 02:53:16;;;;;;;7.20;4.30;;;11.00;63.30;;;;;;5176706;27;20243;-75
2021/06/08 02:56:05;;;;;;;5.90;3.90;;;11.00;66.60;;;;;;5176843;27;20197;-75
2021/06/08 02:58:52;;;;;;;13.60;3.90;;;11.00;66.00;;;;;;5168739;27;20246;-75
2021/06/08 03:01:41;;;;;;;7.77;4.83;;;11.00;70.00;;;;;;5175894;27;20280;-75
2021/06/08 03:04:33;;;;;;;6.73;4.43;;;11.10;66.10;;;;;;5168223;27;20204;-74
2021/06/08 03:07:20;;;;;;;7.00;4.00;;;11.10;65.00;;;;;;5176717;27;20620;-74
2021/06/08 03:10:08;;;;;;;8.70;4.70;;;11.00;60.80;;;;;;5176843;27;20201;-75
2021/06/08 03:12:57;;;;;;;8.17;5.10;;;11.10;62.90;;;;;;5176770;27;20193;-74
2021/06/08 03:15:47;;;;;;;9.10;5.80;;;11.10;64.00;;;;;;5168621;27;20591;-73
2021/06/08 03:18:34;;;;;;;7.73;5.50;;;11.10;65.40;;;;;;5175802;27;20652;-74
2021/06/08 03:21:26;;;;;;;11.70;5.97;;;11.20;67.50;;;;;;5168573;27;20683;-75
2021/06/08 03:24:14;;;;;;;12.47;6.33;;;11.20;69.30;;;;;;5176304;27;20197;-75
2021/06/08 03:27:01;;;;;;;12.10;6.40;;;11.30;73.10;;;;;;5169769;27;20199;-75
2021/06/08 03:29:48;;;;;;;10.97;6.67;;;11.40;71.30;;;;;;5176444;27;20546;-75
2021/06/08 03:32:35;;;;;;;14.07;6.57;;;11.40;70.10;;;;;;5169542;27;20203;-75
2021/06/08 03:35:24;;;;;;;14.57;7.20;;;11.50;75.50;;;;;;5169955;27;20199;-75
2021/06/08 03:38:12;;;;;;;18.97;7.93;;;11.60;74.30;;;;;;5175773;27;20205;-74
2021/06/08 03:40:59;;;;;;;15.43;8.40;;;11.70;71.90;;;;;;5175295;27;20200;-74
2021/06/08 03:43:46;;;;;;;13.20;8.47;;;11.80;68.90;;;;;;5176104;27;20276;-74
2021/06/08 03:46:35;;;;;;;13.17;8.70;;;11.90;69.40;;;;;;5175172;27;20212;-75
2021/06/08 03:49:22;;;;;;;13.67;7.97;;;11.90;68.30;;;;;;5175910;27;20189;-74
2021/06/08 03:52:09;;;;;;;14.23;8.80;;;12.00;69.10;;;;;;5175372;27;20639;-75
2021/06/08 03:54:58;;;;;;;14.73;8.03;;;12.10;70.40;;;;;;5175048;27;20567;-75
2021/06/08 03:57:47;;;;;;;17.60;9.17;;;12.20;66.50;;;;;;5174589;27;20244;-74
2021/06/08 04:00:34;;;;;;;19.30;10.23;;;12.40;65.80;;;;;;5175969;27;20249;-75
2021/06/08 04:03:22;;;;;;;23.00;12.83;;;12.50;68.00;;;;;;5168418;27;20197;-74
2021/06/08 04:06:09;;;;;;;20.77;12.43;;;12.60;66.90;;;;;;5176177;27;20193;-74
2021/06/08 04:08:56;;;;;;;28.00;12.93;;;12.70;65.80;;;;;;5168996;27;20193;-74
2021/06/08 04:11:48;;;;;;;21.20;13.53;;;12.90;68.20;;;;;;5174659;27;20656;-73
2021/06/08 04:14:35;;;;;;;23.97;12.63;;;13.10;76.60;;;;;;5175268;27;20663;-75
2021/06/08 04:17:22;;;;;;;25.43;13.67;;;13.20;74.60;;;;;;5174257;27;20209;-73
2021/06/08 04:20:10;;;;;;;22.70;12.53;;;13.30;74.90;;;;;;5174935;27;20197;-73
2021/06/08 04:22:58;;;;;;;26.43;12.63;;;13.50;74.50;;;;;;5174090;27;20197;-71
2021/06/08 04:25:45;;;;;;;22.23;12.60;;;13.50;68.30;;;;;;5174498;27;20611;-73
2021/06/08 04:28:34;;;;;;;24.07;12.83;;;13.70;69.30;;;;;;5175012;27;20198;-75
2021/06/08 04:31:21;;;;;;;24.57;13.10;;;13.80;64.50;;;;;;5174954;27;20242;-74
2021/06/08 04:34:09;;;;;;;28.80;14.73;;;14.00;58.70;;;;;;5174955;27;20192;-74
2021/06/08 04:36:56;;;;;;;22.87;12.67;;;14.10;52.50;;;;;;5175091;27;20306;-74
2021/06/08 04:39:43;;;;;;;23.90;13.30;;;14.30;46.70;;;;;;5174221;27;20204;-73
2021/06/08 04:42:30;;;;;;;27.53;14.40;;;14.50;45.10;;;;;;5174965;27;20203;-74
2021/06/08 04:45:19;;;;;;;23.17;14.57;;;14.80;39.10;;;;;;5174249;27;20204;-74
2021/06/08 04:48:07;;;;;;;27.13;14.37;;;15.00;28.10;;;;;;5174112;27;20185;-73
2021/06/08 04:50:54;;;;;;;34.03;14.97;;;15.20;20.50;;;;;;5174025;27;20197;-72
2021/06/08 04:53:41;;;;;;;25.77;14.67;;;15.40;16.70;;;;;;5169000;27;20266;-71
2021/06/08 04:56:29;;;;;;;29.20;15.30;;;15.60;14.60;;;;;;5174716;27;20208;-72
2021/06/08 04:59:17;;;;;;;25.97;14.57;;;15.70;9.60;;;;;;5174657;27;20652;-72
2021/06/08 05:02:07;;;;;;;27.93;14.50;;;15.90;6.80;;;;;;5165148;27;20208;-72
2021/06/08 05:04:54;;;;;;;29.70;14.40;;;16.10;2.40;;;;;;5174180;27;20208;-71
2021/06/08 05:07:45;;;;;;;24.40;14.20;;;16.30;1.00;;;;;;5173971;27;20221;-71
2021/06/08 05:10:32;;;;;;;27.50;14.43;;;16.40;1.00;;;;;;5167418;27;20280;-72
2021/06/08 05:13:19;;;;;;;29.37;14.43;;;16.60;1.00;;;;;;5173280;27;20192;-72
2021/06/08 05:16:06;;;;;;;29.67;14.33;;;16.70;1.00;;;;;;5165951;27;20201;-72
2021/06/08 05:18:54;;;;;;;29.40;15.00;;;16.80;1.00;;;;;;5173358;27;20261;-71
2021/06/08 05:21:42;;;;;;;32.67;13.97;;;17.00;1.00;;;;;;5174033;27;20201;-71
2021/06/08 05:24:29;;;;;;;29.73;14.13;;;17.10;1.00;;;;;;5155020;27;20651;-71
2021/06/08 05:27:16;;;;;;;29.87;13.90;;;17.30;1.00;;;;;;5163625;27;20193;-71
2021/06/08 05:30:04;;;;;;;24.57;13.33;;;17.50;1.00;;;;;;5167377;27;20196;-72
2021/06/08 05:32:51;;;;;;;27.30;13.50;;;17.60;1.00;;;;;;5169064;27;20277;-72
2021/06/08 05:35:40;;;;;;;29.03;13.93;;;17.70;1.00;;;;;;5169799;27;20776;-71
2021/06/08 05:38:32;;;;;;;23.60;13.97;;;17.90;1.00;;;;;;5165634;27;20649;-71
2021/06/08 05:41:19;;;;;;;29.80;13.63;;;18.00;1.00;;;;;;5176179;27;20193;-72
2021/06/08 05:44:09;;;;;;;24.97;14.00;;;18.10;1.00;;;;;;5171438;27;20201;-72
2021/06/08 05:46:56;;;;;;;27.70;14.87;;;18.20;1.00;;;;;;5162612;27;20222;-72
2021/06/08 05:49:43;;;;;;;27.63;14.43;;;18.30;1.00;;;;;;5158418;27;20672;-71
2021/06/08 05:52:32;;;;;;;27.77;14.70;;;18.40;1.00;;;;;;5158841;27;20205;-72
2021/06/08 05:55:19;;;;;;;24.87;13.90;;;18.50;1.00;;;;;;5158502;27;20744;-71
2021/06/08 05:58:08;;;;;;;22.37;13.80;;;18.60;1.00;;;;;;5157070;27;20227;-72
2021/06/08 06:00:55;;;;;;;28.07;14.80;;;18.80;1.00;;;;;;5169154;27;20194;-72
2021/06/08 06:03:42;;;;;;;24.90;14.33;;;19.00;1.00;;;;;;5160995;27;20195;-72
2021/06/08 06:06:29;;;;;;;29.03;13.33;;;19.10;1.00;;;;;;5149977;27;20628;-72
2021/06/08 06:09:21;;;;;;;20.80;12.67;;;19.30;1.00;;;;;;5157040;27;20211;-73
2021/06/08 06:12:09;;;;;;;21.73;14.13;;;19.50;1.00;;;;;;5160943;27;20279;-73
2021/06/08 06:15:03;;;;;;;26.77;12.90;;;19.60;1.00;;;;;;5158492;27;20255;-73
2021/06/08 06:17:50;;;;;;;25.47;13.50;;;19.70;1.00;;;;;;5172560;27;20208;-72
2021/06/08 06:20:37;;;;;;;22.43;13.67;;;19.80;1.00;;;;;;5166624;27;20197;-72
2021/06/08 06:23:24;;;;;;;21.80;13.30;;;20.00;1.00;;;;;;5158567;27;20205;-72
2021/06/08 06:26:13;;;;;;;25.10;14.83;;;20.00;1.00;;;;;;5157885;27;20203;-73
2021/06/08 06:29:00;;;;;;;24.10;13.87;;;20.10;1.00;;;;;;5163274;27;20587;-73
2021/06/08 06:31:47;;;;;;;25.27;15.20;;;20.00;1.00;;;;;;5178431;27;20202;-73
2021/06/08 06:34:34;;;;;;;27.47;14.60;;;20.00;1.00;;;;;;5178190;27;20199;-73
2021/06/08 06:37:22;;;;;;;22.33;13.73;;;20.10;1.00;;;;;;5168572;27;20245;-73
2021/06/08 06:40:12;;;;;;;25.83;14.10;;;20.30;1.00;;;;;;5157616;27;20202;-74
2021/06/08 06:43:02;;;;;;;23.67;13.17;;;20.40;1.00;;;;;;5156439;27;20229;-71
2021/06/08 06:45:50;;;;;;;22.07;12.87;;;20.50;1.00;;;;;;5156959;27;20204;-71
2021/06/08 06:48:37;;;;;;;19.90;12.03;;;20.80;1.00;;;;;;5157827;27;20242;-73
2021/06/08 06:51:24;;;;;;;20.10;11.87;;;20.90;1.00;;;;;;5172440;27;20387;-70
2021/06/08 06:54:11;;;;;;;20.37;11.60;;;21.10;1.00;;;;;;5150044;27;20231;-72
2021/06/08 06:57:00;;;;;;;22.53;12.17;;;21.30;1.00;;;;;;5145172;27;20524;-73
2021/06/08 06:59:48;;;;;;;17.00;11.03;;;21.30;99.90;;;;;;5140349;27;20208;-73
2021/06/08 07:02:35;;;;;;;23.07;11.33;;;21.30;99.90;;;;;;5140609;27;20199;-73
2021/06/08 07:05:25;;;;;;;21.30;14.03;;;21.40;99.90;;;;;;5151851;27;20198;-72
2021/06/08 07:08:12;;;;;;;29.53;11.40;;;21.40;99.90;;;;;;5129945;27;20198;-72
2021/06/08 07:10:59;;;;;;;19.70;10.70;;;21.60;99.90;;;;;;5150765;27;20220;-73
2021/06/08 07:13:47;;;;;;;25.87;11.07;;;21.80;99.90;;;;;;5142042;27;20202;-72
2021/06/08 07:16:36;;;;;;;19.97;11.17;;;21.80;1.00;;;;;;5139642;27;20209;-72
2021/06/08 07:19:24;;;;;;;18.47;10.27;;;21.80;1.00;;;;;;5147799;27;20214;-72
2021/06/08 07:22:11;;;;;;;16.93;10.33;;;21.90;1.00;;;;;;5140600;27;20281;-72
2021/06/08 07:24:58;;;;;;;16.17;10.43;;;22.00;1.00;;;;;;5144997;27;20206;-72
2021/06/08 07:27:46;;;;;;;20.83;9.97;;;22.30;1.00;;;;;;5137121;27;20199;-71
2021/06/08 07:30:33;;;;;;;20.10;10.10;;;22.40;99.90;;;;;;5119324;27;20633;-73
2021/06/08 07:33:26;;;;;;;20.67;9.33;;;22.60;99.90;;;;;;5134981;27;20191;-71
2021/06/08 07:36:18;;;;;;;17.20;9.10;;;22.80;1.00;;;;;;5138445;27;20193;-72
2021/06/08 07:39:06;;;;;;;14.33;8.27;;;23.10;1.00;;;;;;5145068;27;20210;-73
2021/06/08 07:41:58;;;;;;;17.13;7.70;;;23.30;1.00;;;;;;5145497;27;20349;-74
2021/06/08 07:44:47;;;;;;;12.67;7.70;;;23.30;1.00;;;;;;5153947;27;20323;-74
2021/06/08 07:47:34;;;;;;;16.33;8.27;;;23.30;99.70;;;;;;5136295;27;20217;-73
2021/06/08 07:50:24;;;;;;;17.77;7.70;;;23.30;99.90;;;;;;5150530;27;20201;-73
2021/06/08 07:53:11;;;;;;;12.10;6.43;;;23.50;78.50;;;;;;5147929;27;20660;-72
2021/06/08 07:55:58;;;;;;;14.53;7.00;;;23.60;1.00;;;;;;5146836;27;20189;-72
2021/06/08 07:58:45;;;;;;;14.00;5.70;;;23.60;99.90;;;;;;5145374;27;20210;-71
2021/06/08 08:01:33;;;;;;;9.70;5.20;;;23.90;99.90;;;;;;5132868;27;20203;-72
2021/06/08 08:04:22;;;;;;;11.07;5.37;;;24.20;99.90;;;;;;5148428;27;20186;-72
2021/06/08 08:07:10;;;;;;;9.43;5.00;;;24.30;1.00;;;;;;5147417;27;20193;-73
2021/06/08 08:09:57;;;;;;;13.07;5.00;;;24.50;1.00;;;;;;5143979;27;20212;-73
2021/06/08 08:12:45;;;;;;;12.10;4.70;;;24.80;99.90;;;;;;5150936;27;20648;-71
2021/06/08 08:15:32;;;;;;;7.73;4.47;;;24.60;1.00;;;;;;5128078;27;20366;-72
2021/06/08 08:18:19;;;;;;;8.60;4.43;;;24.50;1.00;;;;;;5147860;27;20202;-71
2021/06/08 08:21:08;;;;;;;9.93;5.00;;;24.80;1.00;;;;;;5131756;27;20285;-74
2021/06/08 08:23:57;;;;;;;6.93;3.73;;;25.00;1.00;;;;;;5133224;27;20198;-74
2021/06/08 08:26:44;;;;;;;8.43;4.37;;;24.90;99.90;;;;;;5152455;27;20278;-72
2021/06/08 08:29:31;;;;;;;7.30;4.10;;;24.90;99.90;;;;;;5137317;27;20633;-72
2021/06/08 08:32:18;;;;;;;10.33;5.07;;;25.00;99.90;;;;;;5130540;27;20220;-72
2021/06/08 08:35:07;;;;;;;7.13;3.60;;;24.90;99.90;;;;;;5134024;27;20531;-71
2021/06/08 08:37:54;;;;;;;8.77;3.90;;;25.00;99.90;;;;;;5141825;27;20656;-72
2021/06/08 08:40:42;;;;;;;7.73;3.97;;;25.50;99.90;;;;;;5132309;27;20253;-72
2021/06/08 08:43:29;;;;;;;7.07;4.00;;;25.50;99.90;;;;;;5144449;27;20659;-71
2021/06/08 08:46:17;;;;;;;6.67;4.03;;;25.10;99.90;;;;;;5144228;27;20220;-72
2021/06/08 08:49:04;;;;;;;11.07;4.20;;;24.70;99.90;;;;;;5148759;27;20190;-71
2021/06/08 08:51:51;;;;;;;7.83;4.17;;;24.80;99.90;;;;;;5134284;27;20535;-72
2021/06/08 08:54:39;;;;;;;6.37;4.23;;;25.10;99.90;;;;;;5151213;27;20308;-72
2021/06/08 08:57:27;;;;;;;8.97;4.60;;;25.40;99.90;;;;;;5173732;27;20201;-72
2021/06/08 09:00:15;;;;;;;7.43;4.37;;;25.90;99.90;;;;;;5173348;27;20226;-71
2021/06/08 09:03:04;;;;;;;13.00;4.65;;;26.40;99.90;;;;;;5173420;27;20213;-71
2021/06/08 09:05:53;;;;;;;9.88;4.25;;;26.10;99.90;;;;;;5175069;27;20217;-72
2021/06/08 09:08:40;;;;;;;9.38;4.35;;;25.70;99.90;;;;;;5165074;27;20196;-71
2021/06/08 09:11:28;;;;;;;8.80;3.90;;;25.40;59.00;;;;;;5174444;27;20201;-72
2021/06/08 09:14:16;;;;;;;6.82;3.75;;;25.20;94.10;;;;;;5164760;27;20627;-71
2021/06/08 09:17:04;;;;;;;4.45;3.17;;;25.40;38.70;;;;;;5172571;27;20275;-72
2021/06/08 09:19:51;;;;;;;9.02;3.83;;;25.60;10.10;;;;;;5173535;27;20193;-72
2021/06/08 09:22:52;;;;;;;6.38;3.63;;;26.30;13.80;;;;;;5169884;27;20216;-72
2021/06/08 09:25:40;;;;;;;4.47;3.20;;;26.90;1.00;;;;;;5175300;27;20193;-72
2021/06/08 09:28:28;;;;;;;7.55;3.38;;;27.40;1.00;;;;;;5172779;27;20651;-72
2021/06/08 09:31:19;;;;;;;10.88;4.05;;;27.80;1.00;;;;;;5174369;27;20651;-71
2021/06/08 09:34:06;;;;;;;6.50;3.38;;;28.40;1.00;;;;;;5171165;27;20242;-71
2021/06/08 09:36:53;;;;;;;6.22;3.80;;;28.80;1.00;;;;;;5172671;27;20197;-71
2021/06/08 09:39:47;;;;;;;6.53;3.70;;;29.30;1.00;;;;;;5173468;27;20197;-72
2021/06/08 09:42:34;;;;;;;8.40;4.65;;;29.50;1.00;;;;;;5165903;27;20198;-72
2021/06/08 09:45:23;;;;;;;9.40;3.97;;;28.80;1.00;;;;;;5174209;27;20197;-71
2021/06/08 09:48:12;;;;;;;14.73;4.70;;;28.10;1.00;;;;;;5173807;27;20276;-71
2021/06/08 09:50:59;;;;;;;8.65;4.22;;;27.30;1.00;;;;;;5174057;27;20276;-71
2021/06/08 09:53:46;;;;;;;8.38;4.60;;;27.10;1.00;;;;;;5173262;27;20318;-71
2021/06/08 09:56:33;;;;;;;8.35;4.63;;;27.30;1.00;;;;;;5166566;27;20280;-72
2021/06/08 09:59:41;;;;;;;7.43;4.78;;;27.70;1.00;;;;;;5174479;27;20244;-73
2021/06/08 10:02:33;;;;;;;6.75;3.88;;;27.60;1.00;;;;;;5173505;27;20242;-72
2021/06/08 10:05:25;;;;;;;6.68;3.65;;;27.30;1.00;;;;;;5173311;27;20189;-72
2021/06/08 10:08:12;;;;;;;6.68;3.78;;;26.80;1.00;;;;;;5174304;27;20207;-72
2021/06/08 10:10:59;;;;;;;6.32;3.33;;;27.00;1.00;;;;;;5172513;27;20193;-71
2021/06/08 10:13:46;;;;;;;5.88;3.17;;;26.60;1.00;;;;;;5173970;27;20551;-70
2021/06/08 10:16:33;;;;;;;8.23;3.35;;;26.90;1.00;;;;;;5166558;27;20247;-71
2021/06/08 10:19:24;;;;;;;8.27;3.10;;;27.10;1.00;;;;;;5175848;27;20655;-70
2021/06/08 10:22:30;;;;;;;4.88;3.63;;;27.20;1.00;;;;;;5177237;27;20221;-71
2021/06/08 10:25:17;;;;;;;5.32;3.00;;;27.20;1.00;;;;;;5171540;27;20212;-71
2021/06/08 10:28:05;;;;;;;3.78;2.70;;;26.90;1.00;;;;;;5176710;27;20201;-71
2021/06/08 10:30:52;;;;;;;3.03;2.75;;;26.70;1.00;;;;;;5177747;27;20276;-71
2021/06/08 10:33:39;;;;;;;5.45;2.90;;;26.40;1.00;;;;;;5176733;27;20189;-71
2021/06/08 10:36:26;;;;;;;3.88;3.13;;;26.20;1.00;;;;;;5175785;27;20200;-71
2021/06/08 10:39:17;;;;;;;5.88;2.95;;;26.10;1.00;;;;;;5176801;27;20242;-71
2021/06/08 10:42:04;;;;;;;5.05;2.78;;;26.60;1.00;;;;;;5174009;27;20539;-73
2021/06/08 10:44:52;;;;;;;4.65;3.00;;;27.20;1.00;;;;;;5177367;27;20197;-71
2021/06/08 10:47:43;;;;;;;5.05;3.40;;;28.20;1.00;;;;;;5176194;27;20599;-71
2021/06/08 10:50:31;;;;;;;3.63;2.60;;;29.00;1.00;;;;;;5176802;27;20647;-71
2021/06/08 10:53:28;;;;;;;3.38;2.63;;;29.70;1.00;;;;;;5171992;27;20208;-71
2021/06/08 10:56:27;;;;;;;3.10;2.70;;;30.20;1.00;;;;;;5176226;27;20190;-70
2021/06/08 10:59:14;;;;;;;6.38;2.60;;;30.00;1.00;;;;;;5170830;27;20217;-75
2021/06/08 11:02:01;;;;;;;6.00;2.78;;;30.00;1.00;;;;;;5176649;27;20230;-74
2021/06/08 11:04:52;;;;;;;5.18;2.88;;;30.50;1.00;;;;;;5177063;27;20205;-72
2021/06/08 11:07:52;;;;;;;5.13;2.70;;;30.80;1.00;;;;;;5176308;27;20268;-73
2021/06/08 11:10:51;;;;;;;5.70;2.55;;;30.20;1.00;;;;;;5168469;27;20208;-73
2021/06/08 11:13:54;;;;;;;53.55;4.53;;;29.50;1.00;;;;;;5176008;27;20686;-72
2021/06/08 11:16:42;;;;;;;4.25;3.25;;;28.70;1.00;;;;;;5169431;27;20200;-72
2021/06/08 11:19:48;;;;;;;6.50;2.95;;;28.30;1.00;;;;;;5168831;27;20248;-73
2021/06/08 11:23:08;;;;;;;8.57;3.42;;;27.80;1.00;;;;;;5170439;27;20197;-73
2021/06/08 11:25:55;;;;;;;6.93;3.60;;;27.50;1.00;;;;;;5087436;28;20651;-72
2021/06/08 11:28:43;;;;;;;7.60;3.08;;;27.30;1.00;;;;;;5086816;28;20196;-72
2021/06/08 11:31:31;;;;;;;6.43;3.13;;;27.20;1.00;;;;;;5101743;28;20286;-73
2021/06/08 11:34:18;;;;;;;3.45;2.75;;;27.50;1.00;;;;;;5099288;28;20643;-73
2021/06/08 11:37:05;;;;;;;12.73;3.10;;;27.80;1.00;;;;;;5108410;28;20662;-73
2021/06/08 11:39:52;;;;;;;4.07;3.35;;;28.40;1.00;;;;;;5095712;28;20234;-72
2021/06/08 11:42:39;;;;;;;4.85;3.13;;;28.50;1.00;;;;;;5094390;28;20215;-72
2021/06/08 11:45:27;;;;;;;5.53;3.55;;;28.40;1.00;;;;;;5100074;28;20662;-73
2021/06/08 11:48:30;;;;;;;5.18;3.08;;;28.20;1.00;;;;;;5096416;28;20241;-72
2021/06/08 11:51:34;;;;;;;7.18;3.47;;;27.90;1.00;;;;;;5099214;28;20204;-71
2021/06/08 11:54:37;;;;;;;5.68;3.42;;;27.40;1.00;;;;;;5092287;28;20231;-73
2021/06/08 11:57:37;;;;;;;5.25;3.30;;;27.20;1.00;;;;;;5166464;27;20193;-72
2021/06/08 12:00:42;;;;;;;7.20;2.95;;;26.90;1.00;;;;;;5171189;27;20193;-73
2021/06/08 12:03:31;;;;;;;8.13;2.95;;;26.80;1.00;;;;;;5176094;27;20193;-73
2021/06/08 12:06:18;;;;;;;5.05;3.03;;;26.60;1.00;;;;;;5174206;27;20193;-72
2021/06/08 12:09:05;;;;;;;4.45;3.13;;;26.90;1.00;;;;;;5168124;27;20197;-72
2021/06/08 12:11:53;;;;;;;3.75;3.17;;;27.50;1.00;;;;;;5174514;27;20245;-72
2021/06/08 12:14:51;;;;;;;8.35;3.28;;;27.40;1.00;;;;;;5167635;27;20196;-71
2021/06/08 12:17:38;;;;;;;4.85;3.40;;;27.10;1.00;;;;;;5175543;27;20196;-72
2021/06/08 12:20:27;;;;;;;9.20;3.38;;;26.90;1.00;;;;;;5173927;27;20620;-72
2021/06/08 12:23:25;;;;;;;4.45;3.30;;;26.60;1.00;;;;;;5167268;27;20603;-71
2021/06/08 12:26:13;;;;;;;3.95;3.20;;;26.50;1.00;;;;;;5175009;27;20193;-71
2021/06/08 12:29:03;;;;;;;5.05;3.38;;;26.30;1.00;;;;;;5170392;27;20225;-71
2021/06/08 12:31:58;;;;;;;6.72;3.47;;;26.30;1.00;;;;;;5174327;27;20534;-71
2021/06/08 12:34:49;;;;;;;4.53;3.40;;;26.20;1.00;;;;;;5167536;27;20276;-71
2021/06/08 12:37:37;;;;;;;5.80;3.45;;;26.10;1.00;;;;;;5174768;27;20189;-71
2021/06/08 12:40:24;;;;;;;3.72;3.30;;;26.20;1.00;;;;;;5173412;27;20705;-70
2021/06/08 12:43:11;;;;;;;8.07;3.60;;;26.30;1.00;;;;;;5169475;27;20193;-70
2021/06/08 12:45:59;;;;;;;8.65;3.60;;;26.60;1.00;;;;;;5175059;27;20229;-70
2021/06/08 12:48:46;;;;;;;6.80;3.60;;;26.70;1.00;;;;;;5174799;27;20245;-70
2021/06/08 12:51:33;;;;;;;5.70;3.05;;;26.90;1.00;;;;;;5166973;27;20197;-70
2021/06/08 12:54:33;;;;;;;8.10;3.20;;;27.70;1.00;;;;;;5174181;27;20248;-70
2021/06/08 12:57:24;;;;;;;6.20;3.58;;;28.50;1.00;;;;;;5174921;27;20189;-70
2021/06/08 13:00:14;;;;;;;5.03;3.40;;;29.00;1.00;;;;;;5174556;27;20190;-70
2021/06/08 13:03:01;;;;;;;6.05;3.08;;;29.60;1.00;;;;;;5173558;27;20197;-70
2021/06/08 13:05:48;;;;;;;4.60;3.20;;;29.80;1.00;;;;;;5173219;27;20272;-71
2021/06/08 13:08:35;;;;;;;6.95;3.22;;;29.40;1.00;;;;;;5165085;27;20200;-71
2021/06/08 13:11:25;;;;;;;3.17;2.88;;;28.90;1.00;;;;;;5174004;27;20208;-72
2021/06/08 13:14:12;;;;;;;4.97;3.30;;;28.60;1.00;;;;;;5173727;27;20185;-71
2021/06/08 13:16:59;;;;;;;3.97;3.13;;;28.40;1.00;;;;;;5170272;27;20313;-72
2021/06/08 13:19:47;;;;;;;9.32;3.28;;;28.20;1.00;;;;;;5173681;27;20220;-71
2021/06/08 13:22:37;;;;;;;7.63;3.13;;;27.80;1.00;;;;;;5167498;27;20201;-72
2021/06/08 13:25:26;;;;;;;4.90;2.92;;;27.60;1.00;;;;;;5173360;27;20583;-71
2021/06/08 13:28:26;;;;;;;4.68;3.10;;;27.20;1.00;;;;;;5174364;27;20631;-72
2021/06/08 13:31:13;;;;;;;4.82;3.20;;;27.10;1.00;;;;;;5173147;27;20201;-71
2021/06/08 13:34:00;;;;;;;3.85;3.15;;;27.10;1.00;;;;;;5174350;27;20193;-72
2021/06/08 13:36:48;;;;;;;3.78;3.08;;;27.30;1.00;;;;;;5173370;27;20212;-71
2021/06/08 13:39:38;;;;;;;4.88;2.90;;;27.70;1.00;;;;;;5173615;27;20216;-70
2021/06/08 13:42:25;;;;;;;4.22;3.28;;;28.60;1.00;;;;;;5173913;27;20189;-70
2021/06/08 13:45:14;;;;;;;4.82;3.38;;;29.50;1.00;;;;;;5167032;27;20200;-70
2021/06/08 13:48:21;;;;;;;4.68;3.15;;;30.10;1.00;;;;;;5173975;27;20574;-71
2021/06/08 13:51:15;;;;;;;5.32;2.92;;;30.40;1.00;;;;;;5173932;27;20256;-71
2021/06/08 13:54:08;;;;;;;4.30;3.38;;;30.30;1.00;;;;;;5168996;27;20228;-72
2021/06/08 13:57:03;;;;;;;3.92;3.38;;;29.90;1.00;;;;;;5177647;27;20201;-71
2021/06/08 14:02:58;;;;;;;6.18;3.80;;;29.20;1.00;;;;;;5171776;27;20185;-72
2021/06/08 14:05:49;;;;;;;5.03;3.08;;;28.80;1.00;;;;;;5177051;27;20204;-72
2021/06/08 14:08:36;;;;;;;9.48;3.30;;;28.40;1.00;;;;;;5172619;27;20321;-72
2021/06/08 14:11:39;;;;;;;8.90;3.75;;;28.10;1.00;;;;;;5177330;27;20237;-72
2021/06/08 14:14:28;;;;;;;8.30;3.55;;;28.00;1.00;;;;;;5170994;27;20220;-72
2021/06/08 14:17:16;;;;;;;4.80;3.10;;;27.70;1.00;;;;;;5164602;27;20194;-72
2021/06/08 14:20:05;;;;;;;6.10;3.42;;;27.50;1.00;;;;;;5173040;27;20194;-72
2021/06/08 14:22:52;;;;;;;5.57;3.05;;;27.30;1.00;;;;;;5176903;27;20229;-72
2021/06/08 14:25:39;;;;;;;16.92;3.45;;;27.30;1.00;;;;;;5173232;27;20254;-72
2021/06/08 14:28:27;;;;;;;3.63;2.95;;;27.10;1.00;;;;;;5177264;27;20233;-71
2021/06/08 14:31:14;;;;;;;6.50;3.40;;;27.30;1.00;;;;;;5172302;27;20201;-71
2021/06/08 14:34:01;;;;;;;11.55;3.40;;;27.30;1.00;;;;;;5177510;27;20330;-71
2021/06/08 14:36:49;;;;;;;4.15;3.33;;;27.40;1.00;;;;;;5168494;27;20201;-71
2021/06/08 14:39:36;;;;;;;7.38;3.33;;;27.40;1.00;;;;;;5176385;27;20209;-72
2021/06/08 14:42:23;;;;;;;4.95;3.53;;;27.30;1.00;;;;;;5168862;27;20282;-72
2021/06/08 14:45:11;;;;;;;3.92;3.00;;;27.20;1.00;;;;;;5177119;27;20190;-72